KAAA

Logan County Airport

Lincoln, Illinois, USA
METAR KAAA 241115Z AUTO 09003KT 10SM OVC022 16/13 A3002 RMK AO2 T01550129
Observed Flight Rules
Sep-24 @ 11:15 UTC (18 minutes ago) Marginal Visual Flight Rules
Wind Visibility Clouds
90° at 3 knots 10 miles
  • Overcast at 2,200' AGL
Temperatures Readings
Current 16°C / 61°F
Dewpoint 13°C / 55°F
Humidity 83%
Altimeter 30.02" Hg
Pressure 1017 hPa
Elevation 182
METAR KAAA 241115Z AUTO 09003KT 10SM OVC022 16/13 A3002 RMK AO2 T01550129
Observed Flight Rules
Sep-24 @ 11:15 UTC
(18 minutes ago)
MVFR
Wind Visibility
90° at 3 knots 10 miles
Clouds
  • Overcast at 2,200' AGL
Temperature Dewpoint
16°C / 61°F 13°C / 55°F
Humidity Altimeter Pressure
83% 30.02" Hg 1017 hPa